Impacts METAR Board
IDs:

KSAN - San Diego Intl Arpt, CA, US

Updated at: 2000 UTC 19 May 2019
Potential Impact None Slight Moderate High
Time 19/08Z 19/09Z 19/10Z 19/11Z 19/12Z 19/13Z 19/14Z 19/15Z 19/16Z 19/17Z 19/18Z 19/19Z 19/20Z
Temp63 62 61 62 61 62 61 62 63 62 60 59 60
Dewpt54 53 53 49 49 50 51 53 51 54 54 57 57
Altim29.95 29.94 29.93 29.93 29.91 29.91 29.91 29.91 29.91 29.93 29.94 29.95 29.94
VIS10 10 10 10 10 10 10 10 10 4 7 3 3
CIG33 30 90 24 90 70 34 75 70 40 40 40 7
CoverBKNBKNBKNBKNBKNOVCOVCOVCOVCOVCOVCOVCOVC
FltCatVFRMVFRVFRMVFRVFRVFRVFRVFRVFRMVFRVFRMVFRIFR
WX------------------RA--RARA
WDir260300290310310300220170170210190190180
WSpd6 5 5 6 3 4 3 5 10 9 5 9 9
WGst-- -- -- -- -- -- -- -- -- -- -- -- --
Raw hourly METARs
KSAN 190751Z 26006KT 10SM BKN033 BKN085 17/12 A2995 RMK AO2 SLP141 T01720122 402060139
KSAN 190851Z 30005KT 10SM BKN030 BKN100 17/12 A2994 RMK AO2 SLP138 VCSH T01670117 56015
KSAN 190951Z 29005KT 10SM FEW029 BKN090 BKN120 16/12 A2993 RMK AO2 RAB0854E39 SLP134 VCSH P0000 T01610117
KSAN 191051Z 31006KT 10SM BKN024 BKN034 17/09 A2993 RMK AO2 SLP134 VCSH T01670094
KSAN 191151Z 31003KT 10SM FEW026 SCT060 BKN090 16/09 A2991 RMK AO2 SLP127 VCSH 60000 T01610094 10172 20161 58010
KSAN 191251Z 30004KT 10SM FEW026 OVC070 17/10 A2991 RMK AO2 SLP128 VCSH T01670100
KSAN 191351Z 22003KT 10SM BKN034 OVC075 16/11 A2991 RMK AO2 SLP129 T01610106
KSAN 191451Z AUTO 17005KT 10SM FEW021 BKN075 OVC090 17/12 A2991 RMK AO2 RAB26E40 SLP126 P0000 60000 T01670117 58001
KSAN 191551Z COR 17010KT 10SM FEW020 BKN070 OVC090 17/11 A2991 RMK AO2 SLP127 T01720106
KSAN 191651Z 21009KT 4SM RA SCT023 OVC040 17/12 A2993 RMK AO2 RAB36 SLP135 P0000 T01670122
KSAN 191751Z 19005KT 7SM FEW018 SCT023 OVC040 16/12 A2994 RMK AO2 RAE47 SLP137 P0009 60009 T01560122 10172 20150 53011
KSAN 191851Z 19009KT 3SM RA FEW018 SCT021 OVC040 15/14 A2995 RMK AO2 RAB1758 SLP141 P0003 T01500139
KSAN 191954Z COR 18009KT 3SM RA BKN007 OVC012 16/14 A2994 RMK AO2 P0000 T01560139



Page loaded:  20:32 UTC  |   01:32 PM Pacific  |   02:32 PM Mountain  |   03:32 PM Central  |   04:32 PM Eastern

 

ADVISORIES

FORECASTS

FORECASTS

OBSERVATIONS

USER TOOLS

ABOUT US